Time;durP1;ratioP1;P1;durP2;ratioP2;P2;SDS_P1;SDS_P2;PMS_P1;PMS_P2;Temp;Humidity;BMP_temperature;BMP_pressure;BME280_temperature;BME280_humidity;BME280_pressure;Samples;Min_cycle;Max_cycle;Signal;HPM_P1;HPM_P2
2023/08/25 00:00:43;;;;;;;61.10;52.53;;;18.80;99.90;;;;;;5052180;28;20455;-71
2023/08/25 00:03:09;;;;;;;61.20;53.42;;;18.80;99.90;;;;;;5053501;28;20049;-72
2023/08/25 00:05:37;;;;;;;60.08;50.58;;;18.60;99.90;;;;;;5052325;28;20045;-72
2023/08/25 00:08:02;;;;;;;66.07;56.15;;;18.60;99.90;;;;;;5053546;28;20072;-72
2023/08/25 00:10:31;;;;;;;59.63;51.55;;;18.80;99.90;;;;;;5052341;28;20076;-72
2023/08/25 00:12:57;;;;;;;63.55;52.35;;;18.70;99.90;;;;;;5052487;28;20041;-71
2023/08/25 00:15:23;;;;;;;64.50;53.50;;;18.60;99.90;;;;;;5052454;28;20051;-72
2023/08/25 00:17:50;;;;;;;60.20;52.53;;;18.70;99.90;;;;;;5052189;28;20066;-71
2023/08/25 00:20:16;;;;;;;59.45;51.88;;;18.50;99.90;;;;;;5056033;28;20041;-72
2023/08/25 00:22:42;;;;;;;65.72;54.03;;;18.50;99.90;;;;;;5056291;28;20091;-72
2023/08/25 00:25:08;;;;;;;63.30;54.17;;;18.70;99.90;;;;;;5057629;28;20049;-72
2023/08/25 00:27:34;;;;;;;62.53;52.67;;;18.60;99.90;;;;;;5057542;28;20047;-71
2023/08/25 00:30:00;;;;;;;62.95;54.03;;;18.60;99.90;;;;;;5056230;28;20128;-71
2023/08/25 00:32:26;;;;;;;62.38;52.00;;;18.40;99.90;;;;;;5056108;28;20083;-72
2023/08/25 00:34:51;;;;;;;60.83;50.08;;;18.50;99.90;;;;;;5057254;28;20044;-72
2023/08/25 00:37:17;;;;;;;64.70;53.78;;;18.60;99.90;;;;;;5057143;28;20152;-71
2023/08/25 00:39:43;;;;;;;70.35;53.00;;;18.50;99.90;;;;;;5055957;28;20037;-71
2023/08/25 00:42:08;;;;;;;63.63;53.30;;;18.60;99.90;;;;;;5055569;28;20048;-72
2023/08/25 00:44:35;;;;;;;66.82;53.47;;;18.60;99.90;;;;;;5055974;28;20045;-71
2023/08/25 00:47:00;;;;;;;68.90;52.67;;;18.40;99.90;;;;;;5056117;28;20457;-72
2023/08/25 00:49:27;;;;;;;67.63;52.53;;;18.60;99.90;;;;;;5055721;28;20562;-72
2023/08/25 00:51:53;;;;;;;63.50;50.80;;;18.40;99.90;;;;;;5055687;28;20057;-71
2023/08/25 00:54:22;;;;;;;67.72;50.50;;;18.60;99.90;;;;;;5055951;28;20091;-72
2023/08/25 00:56:50;;;;;;;73.85;53.22;;;18.60;99.90;;;;;;5055702;28;20045;-72
2023/08/25 00:59:17;;;;;;;57.60;47.63;;;18.60;99.90;;;;;;5055664;28;20504;-71
2023/08/25 01:01:44;;;;;;;62.60;48.72;;;18.50;99.90;;;;;;5056915;28;20059;-72
2023/08/25 01:04:10;;;;;;;62.53;48.90;;;18.40;99.90;;;;;;5055453;28;20052;-71
2023/08/25 01:06:37;;;;;;;65.45;48.60;;;18.60;99.90;;;;;;5055737;28;20128;-72
2023/08/25 01:09:04;;;;;;;64.43;48.97;;;18.40;99.90;;;;;;5055736;28;20056;-72
2023/08/25 01:11:48;;;;;;;62.42;47.33;;;18.60;99.90;;;;;;5055702;28;20088;-71
2023/08/25 01:14:25;;;;;;;67.00;49.47;;;18.60;99.90;;;;;;5055410;28;20044;-71
2023/08/25 01:17:11;;;;;;;70.00;48.10;;;18.60;99.90;;;;;;5055452;28;20060;-71
2023/08/25 01:20:00;;;;;;;60.63;46.85;;;18.60;99.90;;;;;;5036476;28;20045;-72
2023/08/25 01:22:47;;;;;;;69.18;46.03;;;18.50;99.90;;;;;;5035294;28;20127;-71
2023/08/25 01:25:20;;;;;;;77.68;48.17;;;18.40;99.90;;;;;;5035481;28;20049;-72
2023/08/25 01:27:47;;;;;;;77.40;49.05;;;18.50;99.90;;;;;;5035309;28;20611;-72
2023/08/25 01:30:14;;;;;;;72.78;47.95;;;18.50;99.90;;;;;;5036149;28;20081;-72
2023/08/25 01:32:40;;;;;;;73.28;47.10;;;18.60;99.90;;;;;;5035379;28;20043;-72
2023/08/25 01:35:06;;;;;;;81.18;49.65;;;18.40;99.90;;;;;;5035348;28;20045;-72
2023/08/25 01:37:41;;;;;;;77.22;47.83;;;18.60;99.90;;;;;;5034777;28;20049;-72
2023/08/25 01:40:15;;;;;;;75.97;47.95;;;18.40;99.90;;;;;;5036558;28;20053;-72
2023/08/25 01:42:47;;;;;;;72.00;47.10;;;18.60;99.90;;;;;;5034794;28;20124;-72
2023/08/25 01:45:15;;;;;;;75.38;46.75;;;18.60;99.90;;;;;;5034934;28;20088;-71
2023/08/25 01:47:42;;;;;;;77.18;49.47;;;18.50;99.90;;;;;;5034937;28;20053;-72
2023/08/25 01:50:09;;;;;;;74.45;48.08;;;18.50;99.90;;;;;;5036112;28;20053;-72
2023/08/25 01:52:35;;;;;;;79.45;49.92;;;18.50;99.90;;;;;;5034977;28;20072;-72
2023/08/25 01:55:02;;;;;;;71.90;46.83;;;18.60;99.90;;;;;;5034646;28;20502;-72
2023/08/25 01:57:28;;;;;;;81.75;50.63;;;18.50;99.90;;;;;;5034695;28;20469;-72
2023/08/25 01:59:53;;;;;;;86.50;51.20;;;18.50;99.90;;;;;;5035961;28;20044;-72
2023/08/25 02:02:19;;;;;;;100.53;51.83;;;18.60;99.90;;;;;;5034983;28;20384;-72
2023/08/25 02:04:45;;;;;;;94.72;53.65;;;18.70;99.90;;;;;;5034461;28;20537;-71
2023/08/25 02:07:10;;;;;;;95.22;51.00;;;18.60;99.90;;;;;;5035013;28;20045;-72
2023/08/25 02:09:36;;;;;;;95.65;51.33;;;18.70;99.90;;;;;;5035728;28;20574;-72
2023/08/25 02:12:01;;;;;;;98.68;53.33;;;18.60;99.90;;;;;;5034723;28;20048;-72
2023/08/25 02:14:27;;;;;;;107.55;54.22;;;18.50;99.90;;;;;;5034388;28;20368;-72
2023/08/25 02:16:53;;;;;;;103.00;53.33;;;18.60;99.90;;;;;;5034063;28;20075;-72
2023/08/25 02:19:18;;;;;;;112.53;55.55;;;18.60;99.90;;;;;;5034390;28;20085;-72
2023/08/25 02:21:45;;;;;;;111.53;54.75;;;18.70;99.90;;;;;;5035404;28;20087;-71
2023/08/25 02:24:10;;;;;;;123.45;57.72;;;18.70;99.90;;;;;;5034361;28;20041;-72
2023/08/25 02:26:36;;;;;;;120.60;57.58;;;18.60;99.90;;;;;;5035464;28;20087;-71
2023/08/25 02:29:03;;;;;;;129.93;58.75;;;18.60;99.90;;;;;;5034077;28;20057;-72
2023/08/25 02:31:28;;;;;;;120.07;54.85;;;18.60;99.90;;;;;;5034306;28;20053;-72
2023/08/25 02:33:54;;;;;;;125.82;58.15;;;18.50;99.90;;;;;;5035128;28;20042;-72
2023/08/25 02:36:19;;;;;;;125.60;56.58;;;18.50;99.90;;;;;;5050667;28;20392;-71
2023/08/25 02:38:45;;;;;;;126.88;55.05;;;18.60;99.90;;;;;;5033777;28;20049;-72
2023/08/25 02:41:11;;;;;;;116.10;54.22;;;18.60;99.90;;;;;;5032951;28;20076;-71
2023/08/25 02:43:36;;;;;;;106.78;53.42;;;18.80;99.90;;;;;;5033983;28;20053;-71
2023/08/25 02:46:02;;;;;;;139.15;58.15;;;18.60;99.90;;;;;;5033873;28;20528;-72
2023/08/25 02:48:28;;;;;;;124.72;56.92;;;18.80;99.90;;;;;;5033632;28;20049;-71
2023/08/25 02:50:53;;;;;;;142.15;59.72;;;18.60;99.90;;;;;;5033820;28;20133;-72
2023/08/25 02:53:19;;;;;;;131.68;60.33;;;18.90;99.90;;;;;;5033821;28;20103;-72
2023/08/25 02:55:46;;;;;;;123.70;57.65;;;18.60;99.90;;;;;;5033396;28;20045;-72
2023/08/25 02:58:11;;;;;;;114.65;56.15;;;18.90;99.90;;;;;;5033552;28;20092;-72
2023/08/25 03:00:38;;;;;;;134.90;60.05;;;18.70;99.90;;;;;;5033806;28;20512;-72
2023/08/25 03:03:04;;;;;;;133.55;59.35;;;18.70;99.90;;;;;;5034729;28;20037;-72
2023/08/25 03:05:29;;;;;;;128.48;60.70;;;18.80;99.90;;;;;;5033582;28;20385;-71
2023/08/25 03:07:55;;;;;;;122.97;59.45;;;18.60;99.90;;;;;;5034495;28;20481;-72
2023/08/25 03:10:21;;;;;;;115.85;57.35;;;18.60;99.90;;;;;;5033295;28;20520;-72
2023/08/25 03:12:47;;;;;;;115.70;56.08;;;18.90;99.90;;;;;;5033154;28;20037;-72
2023/08/25 03:15:13;;;;;;;143.18;64.53;;;18.80;99.90;;;;;;5049881;28;20049;-72
2023/08/25 03:17:39;;;;;;;142.40;63.00;;;18.90;99.90;;;;;;5032961;28;20544;-72
2023/08/25 03:20:05;;;;;;;141.52;65.82;;;18.90;99.90;;;;;;5032997;28;20492;-72
2023/08/25 03:22:30;;;;;;;134.30;64.10;;;18.70;99.90;;;;;;5033295;28;20132;-72
2023/08/25 03:24:56;;;;;;;142.85;65.53;;;18.60;99.90;;;;;;5033294;28;20180;-72
2023/08/25 03:27:22;;;;;;;133.88;65.88;;;18.90;99.90;;;;;;5033009;28;20465;-72
2023/08/25 03:29:48;;;;;;;136.43;64.57;;;18.90;99.90;;;;;;5034228;28;20045;-72
2023/08/25 03:32:13;;;;;;;141.55;63.28;;;18.90;99.90;;;;;;5033122;28;20046;-71
2023/08/25 03:34:39;;;;;;;124.55;61.50;;;18.90;99.90;;;;;;5033041;28;20052;-72
2023/08/25 03:37:05;;;;;;;122.10;60.53;;;18.90;99.90;;;;;;5032931;28;20055;-72
2023/08/25 03:39:31;;;;;;;130.88;61.47;;;18.80;99.90;;;;;;5032802;28;20120;-72
2023/08/25 03:41:58;;;;;;;129.65;62.20;;;18.60;99.90;;;;;;5032447;28;20144;-71
2023/08/25 03:44:23;;;;;;;132.23;62.92;;;18.50;99.90;;;;;;5032418;28;20136;-72
2023/08/25 03:46:49;;;;;;;109.07;55.55;;;18.70;99.90;;;;;;5032794;28;20446;-71
2023/08/25 03:49:15;;;;;;;129.25;59.88;;;18.70;99.90;;;;;;5032606;28;20465;-72
2023/08/25 03:51:40;;;;;;;129.57;60.67;;;18.50;99.90;;;;;;5032872;28;20067;-72
2023/08/25 03:54:10;;;;;;;119.03;59.35;;;18.70;99.90;;;;;;5032851;28;20057;-72
2023/08/25 03:56:35;;;;;;;118.88;57.45;;;18.60;99.90;;;;;;5033698;28;20037;-72
2023/08/25 03:59:01;;;;;;;125.00;59.55;;;18.60;99.90;;;;;;5032363;28;20053;-72
2023/08/25 04:01:27;;;;;;;129.73;60.25;;;18.70;99.90;;;;;;5033833;28;20112;-72
2023/08/25 04:03:52;;;;;;;127.90;60.30;;;18.80;99.90;;;;;;5032424;28;20041;-72
2023/08/25 04:06:18;;;;;;;133.75;63.25;;;18.60;99.90;;;;;;5032385;28;20060;-72
2023/08/25 04:08:44;;;;;;;141.20;64.03;;;18.80;99.90;;;;;;5032404;28;20053;-72
2023/08/25 04:11:09;;;;;;;140.98;63.58;;;18.80;99.90;;;;;;5032284;28;20046;-72
2023/08/25 04:13:35;;;;;;;134.85;64.20;;;18.80;99.90;;;;;;5032160;28;20042;-72
2023/08/25 04:16:04;;;;;;;134.00;64.88;;;18.80;99.90;;;;;;5032237;28;20053;-72
2023/08/25 04:18:30;;;;;;;124.68;62.47;;;18.80;99.90;;;;;;5032139;28;20045;-72
2023/08/25 04:20:56;;;;;;;119.35;59.78;;;18.80;99.90;;;;;;5033568;28;20055;-72
2023/08/25 04:23:24;;;;;;;119.03;59.30;;;18.60;99.90;;;;;;5032337;28;20045;-71
2023/08/25 04:25:50;;;;;;;124.50;62.95;;;18.80;99.90;;;;;;5032222;28;20049;-72
2023/08/25 04:28:16;;;;;;;106.32;58.83;;;18.50;99.90;;;;;;5033757;28;20034;-72
2023/08/25 04:30:42;;;;;;;106.45;60.78;;;18.70;99.90;;;;;;5033360;28;20045;-72
2023/08/25 04:33:07;;;;;;;93.63;57.10;;;18.60;99.90;;;;;;5031956;28;20063;-72
2023/08/25 04:35:35;;;;;;;78.25;52.95;;;18.50;99.90;;;;;;5031552;28;20052;-72
2023/08/25 04:38:01;;;;;;;68.30;49.50;;;18.60;99.90;;;;;;5030928;28;20054;-71
2023/08/25 04:40:26;;;;;;;60.45;45.20;;;18.70;99.90;;;;;;5031824;28;20047;-72
2023/08/25 04:42:53;;;;;;;48.65;37.72;;;18.50;99.90;;;;;;5031839;28;20473;-71
2023/08/25 04:45:19;;;;;;;46.67;33.30;;;18.70;99.90;;;;;;5031773;28;20418;-71
2023/08/25 04:47:44;;;;;;;47.30;36.83;;;18.40;99.90;;;;;;5031863;28;20481;-71
2023/08/25 04:50:10;;;;;;;44.00;36.35;;;18.50;99.90;;;;;;5032214;28;20050;-71
2023/08/25 04:52:36;;;;;;;45.53;37.75;;;18.50;99.90;;;;;;5031821;28;20124;-71
2023/08/25 04:55:03;;;;;;;45.22;36.60;;;18.50;99.90;;;;;;5031936;28;20038;-71
2023/08/25 04:57:28;;;;;;;43.97;34.22;;;18.50;99.90;;;;;;5032495;28;20037;-71
2023/08/25 04:59:54;;;;;;;45.08;36.55;;;18.50;99.90;;;;;;5033095;28;20437;-71
2023/08/25 05:02:20;;;;;;;45.72;36.72;;;18.60;99.90;;;;;;5031704;28;20405;-71
2023/08/25 05:04:45;;;;;;;43.75;35.25;;;18.40;99.90;;;;;;5033050;28;20136;-71
2023/08/25 05:07:11;;;;;;;43.85;34.15;;;18.60;99.90;;;;;;5035403;28;20076;-71
2023/08/25 05:09:40;;;;;;;46.55;36.63;;;18.60;99.90;;;;;;5035547;28;20598;-71
2023/08/25 05:12:06;;;;;;;45.55;35.88;;;18.50;99.90;;;;;;5035332;28;20081;-71
2023/08/25 05:14:31;;;;;;;51.67;39.67;;;18.50;99.90;;;;;;5035428;28;20061;-71
2023/08/25 05:16:57;;;;;;;46.10;37.42;;;18.60;99.90;;;;;;5035470;28;20041;-72
2023/08/25 05:19:22;;;;;;;45.95;35.85;;;18.40;99.90;;;;;;5035307;28;20068;-71
2023/08/25 05:21:48;;;;;;;44.28;36.83;;;18.60;99.90;;;;;;5035490;28;20091;-71
2023/08/25 05:24:24;;;;;;;46.38;34.83;;;18.50;99.90;;;;;;5035324;28;20033;-71
2023/08/25 05:26:51;;;;;;;44.65;32.58;;;18.30;99.90;;;;;;5035751;28;20049;-72
2023/08/25 05:29:20;;;;;;;39.75;29.73;;;18.60;99.90;;;;;;5036259;28;20060;-71
2023/08/25 05:31:47;;;;;;;31.42;24.90;;;18.50;99.90;;;;;;5035068;28;20049;-71
2023/08/25 05:34:13;;;;;;;25.17;18.90;;;18.60;99.90;;;;;;5034894;28;20051;-71
2023/08/25 05:36:39;;;;;;;25.00;18.77;;;18.60;99.90;;;;;;5034980;28;20049;-72
2023/08/25 05:39:05;;;;;;;26.75;19.95;;;18.60;99.90;;;;;;5034920;28;20132;-71
2023/08/25 05:41:30;;;;;;;22.73;17.48;;;18.40;99.90;;;;;;5034826;28;20132;-71
2023/08/25 05:43:57;;;;;;;25.05;17.45;;;18.50;99.90;;;;;;5034626;28;20092;-71
2023/08/25 05:46:23;;;;;;;23.08;18.83;;;18.50;99.90;;;;;;5034692;28;20096;-71
2023/08/25 05:48:51;;;;;;;23.98;19.17;;;18.60;99.90;;;;;;5034748;28;20042;-71
2023/08/25 05:51:16;;;;;;;25.33;18.33;;;18.50;99.90;;;;;;5034813;28;20152;-71
2023/08/25 05:53:42;;;;;;;24.48;19.23;;;18.50;99.90;;;;;;5034514;28;20551;-71
2023/08/25 05:56:08;;;;;;;27.73;20.23;;;18.60;99.90;;;;;;5034559;28;20128;-71
2023/08/25 05:58:34;;;;;;;22.40;19.17;;;18.40;99.90;;;;;;5035906;28;20132;-71
2023/08/25 06:01:00;;;;;;;27.92;18.58;;;18.50;99.90;;;;;;5034443;28;20124;-70
2023/08/25 06:03:25;;;;;;;23.48;17.05;;;18.50;99.90;;;;;;5034626;28;20045;-71
2023/08/25 06:05:52;;;;;;;25.58;17.90;;;18.60;99.90;;;;;;5034273;28;20504;-71
2023/08/25 06:08:24;;;;;;;23.23;17.70;;;18.60;99.90;;;;;;5034341;28;20049;-71
2023/08/25 06:10:52;;;;;;;24.38;17.70;;;18.50;99.90;;;;;;5050944;28;20048;-70
2023/08/25 06:13:21;;;;;;;23.95;18.23;;;18.40;99.90;;;;;;5036392;28;20058;-70
2023/08/25 06:15:48;;;;;;;23.92;18.55;;;18.40;99.90;;;;;;5042145;28;20054;-70
2023/08/25 06:18:15;;;;;;;28.27;20.35;;;18.50;99.90;;;;;;5033702;28;20045;-70
2023/08/25 06:20:41;;;;;;;27.20;21.48;;;18.60;99.90;;;;;;5038422;28;20048;-71
2023/08/25 06:23:06;;;;;;;30.40;21.88;;;18.60;99.90;;;;;;5054094;28;20049;-70
2023/08/25 06:25:32;;;;;;;31.38;23.00;;;18.60;99.90;;;;;;5052860;28;20514;-70
2023/08/25 06:27:59;;;;;;;29.55;21.45;;;18.70;99.90;;;;;;5052699;28;20060;-70
2023/08/25 06:30:26;;;;;;;32.25;21.52;;;18.80;99.90;;;;;;5054759;28;20507;-70
2023/08/25 06:32:52;;;;;;;32.53;22.25;;;18.80;99.90;;;;;;5053011;28;20056;-70
2023/08/25 06:35:18;;;;;;;29.40;21.98;;;18.80;99.90;;;;;;5052924;28;20037;-70
2023/08/25 06:37:44;;;;;;;30.60;21.90;;;18.90;99.90;;;;;;5052761;28;20065;-71
2023/08/25 06:40:10;;;;;;;31.08;21.67;;;18.90;99.90;;;;;;5054801;28;20122;-70
2023/08/25 06:42:40;;;;;;;26.88;21.08;;;18.80;99.90;;;;;;5053607;28;20504;-70
2023/08/25 06:45:06;;;;;;;32.92;23.50;;;18.80;99.90;;;;;;5052568;28;20123;-70
2023/08/25 06:47:31;;;;;;;32.50;23.48;;;18.80;99.90;;;;;;5052609;28;20048;-70
2023/08/25 06:49:57;;;;;;;35.47;22.98;;;19.00;99.90;;;;;;5053341;28;20044;-70
2023/08/25 06:52:23;;;;;;;33.88;24.00;;;18.90;99.90;;;;;;5052557;28;20052;-70
2023/08/25 06:54:49;;;;;;;37.20;23.92;;;18.80;99.90;;;;;;5052496;28;20049;-70
2023/08/25 06:57:18;;;;;;;38.47;23.67;;;18.90;99.90;;;;;;5054040;28;20037;-70
2023/08/25 06:59:44;;;;;;;32.40;21.45;;;18.80;99.90;;;;;;5053246;28;20416;-70
2023/08/25 07:02:10;;;;;;;32.85;20.60;;;19.00;99.90;;;;;;5053557;28;20048;-70
2023/08/25 07:04:36;;;;;;;31.50;20.33;;;18.90;99.90;;;;;;5045881;28;20041;-70
2023/08/25 07:07:02;;;;;;;29.05;20.17;;;19.10;99.90;;;;;;5053886;28;20369;-70
2023/08/25 07:09:28;;;;;;;36.22;20.23;;;19.10;99.90;;;;;;5052936;28;20079;-70
2023/08/25 07:11:54;;;;;;;33.95;20.83;;;19.10;99.90;;;;;;5052813;28;20381;-70
2023/08/25 07:14:20;;;;;;;30.42;19.80;;;19.10;99.90;;;;;;5052525;28;20468;-70
2023/08/25 07:16:45;;;;;;;31.92;20.30;;;19.20;99.90;;;;;;5053320;28;20061;-70
2023/08/25 07:19:11;;;;;;;34.28;21.52;;;19.10;99.90;;;;;;5052947;28;20045;-70
2023/08/25 07:21:37;;;;;;;31.75;20.80;;;19.10;99.90;;;;;;5032920;28;20053;-70
2023/08/25 07:24:03;;;;;;;31.10;19.92;;;19.00;99.90;;;;;;5033966;28;20083;-70
2023/08/25 07:26:29;;;;;;;32.13;18.90;;;19.20;99.90;;;;;;5032628;28;20042;-70
2023/08/25 07:28:55;;;;;;;33.35;20.38;;;19.10;99.90;;;;;;5032366;28;20044;-70
2023/08/25 07:31:20;;;;;;;29.02;20.23;;;19.10;99.90;;;;;;5032491;28;20053;-70
2023/08/25 07:33:46;;;;;;;31.00;18.17;;;19.20;99.90;;;;;;5034061;28;20049;-70
2023/08/25 07:36:11;;;;;;;28.75;18.73;;;19.20;99.90;;;;;;5050975;28;20057;-72
2023/08/25 07:38:38;;;;;;;28.83;18.88;;;19.20;99.90;;;;;;5048694;28;20037;-70
2023/08/25 07:41:04;;;;;;;28.02;19.73;;;19.20;99.90;;;;;;5041398;28;20059;-69
2023/08/25 07:43:29;;;;;;;24.02;17.33;;;19.20;99.90;;;;;;5032558;28;20046;-70
2023/08/25 07:45:56;;;;;;;34.40;20.67;;;19.30;99.90;;;;;;5032227;28;20455;-70
2023/08/25 07:48:23;;;;;;;30.65;19.42;;;19.30;99.90;;;;;;5032295;28;20046;-69
2023/08/25 07:50:49;;;;;;;30.23;19.58;;;19.30;99.90;;;;;;5032252;28;20041;-70
2023/08/25 07:53:15;;;;;;;29.88;19.60;;;19.30;99.90;;;;;;5032247;28;20106;-70
2023/08/25 07:55:41;;;;;;;28.17;19.23;;;19.40;99.90;;;;;;5036279;28;20045;-70
2023/08/25 07:58:08;;;;;;;31.83;20.80;;;19.50;99.90;;;;;;5052146;28;20041;-70
2023/08/25 08:00:40;;;;;;;28.00;20.55;;;19.50;99.90;;;;;;5051402;28;20045;-70
2023/08/25 08:03:08;;;;;;;28.85;18.63;;;19.60;99.90;;;;;;5051284;28;20087;-70
2023/08/25 08:05:34;;;;;;;32.17;18.38;;;19.60;99.90;;;;;;5050298;28;20095;-70
2023/08/25 08:08:00;;;;;;;32.00;19.05;;;19.80;99.90;;;;;;5052653;28;20045;-70
2023/08/25 08:10:26;;;;;;;30.25;18.40;;;19.70;99.90;;;;;;5051298;28;20049;-70
2023/08/25 08:12:52;;;;;;;27.35;19.42;;;19.80;99.90;;;;;;5051699;28;20064;-70
2023/08/25 08:15:18;;;;;;;33.85;18.65;;;19.80;99.90;;;;;;5051817;28;20047;-70
2023/08/25 08:17:44;;;;;;;28.15;18.85;;;19.90;99.90;;;;;;5050794;28;20049;-70
2023/08/25 08:20:13;;;;;;;30.05;18.38;;;19.80;99.90;;;;;;5051183;28;20041;-70
2023/08/25 08:22:45;;;;;;;31.05;18.75;;;19.90;99.90;;;;;;5051741;28;20041;-70
2023/08/25 08:25:11;;;;;;;33.53;18.37;;;19.90;99.90;;;;;;5051120;28;20049;-70
2023/08/25 08:27:39;;;;;;;28.65;17.85;;;19.80;99.90;;;;;;5050925;28;20654;-70
2023/08/25 08:30:05;;;;;;;28.80;18.23;;;19.80;99.90;;;;;;5052424;28;20059;-70
2023/08/25 08:32:31;;;;;;;31.20;18.58;;;20.00;99.90;;;;;;5051366;28;20045;-70
2023/08/25 08:34:57;;;;;;;28.70;17.83;;;20.10;99.90;;;;;;5051873;28;20396;-70
2023/08/25 08:37:22;;;;;;;25.10;18.35;;;20.10;99.90;;;;;;5052107;28;20099;-70
2023/08/25 08:39:48;;;;;;;29.58;17.75;;;20.30;99.90;;;;;;5053254;28;20068;-70
2023/08/25 08:42:14;;;;;;;28.80;18.48;;;20.30;99.90;;;;;;5054967;28;20044;-70
2023/08/25 08:44:48;;;;;;;27.90;17.58;;;20.40;99.90;;;;;;5053741;28;20107;-70
2023/08/25 08:47:15;;;;;;;33.13;18.75;;;20.50;99.90;;;;;;5053270;28;20045;-70
2023/08/25 08:49:42;;;;;;;28.65;18.88;;;20.50;99.90;;;;;;5055337;28;20052;-71
2023/08/25 08:52:10;;;;;;;25.90;18.02;;;20.70;99.90;;;;;;5055253;28;20045;-70
2023/08/25 08:54:37;;;;;;;33.20;18.48;;;20.80;99.90;;;;;;5054550;28;20488;-70
2023/08/25 08:57:04;;;;;;;31.05;18.70;;;20.80;99.90;;;;;;5055974;28;20045;-70
2023/08/25 08:59:30;;;;;;;27.88;18.65;;;21.00;99.90;;;;;;5055246;28;20048;-70
2023/08/25 09:01:57;;;;;;;28.55;17.80;;;20.90;99.90;;;;;;5054624;28;20043;-70
2023/08/25 09:04:24;;;;;;;27.92;17.42;;;20.90;99.90;;;;;;5055636;28;20056;-71
2023/08/25 09:06:51;;;;;;;28.48;17.48;;;20.90;99.90;;;;;;5055158;28;20127;-70
2023/08/25 09:09:21;;;;;;;27.10;17.55;;;21.10;99.90;;;;;;5054436;28;20446;-70
2023/08/25 09:11:48;;;;;;;26.05;17.25;;;21.00;99.90;;;;;;5054552;28;20064;-70
2023/08/25 09:14:31;;;;;;;28.30;17.35;;;21.20;99.90;;;;;;5056236;28;20045;-70
2023/08/25 09:17:00;;;;;;;28.73;17.70;;;21.10;99.90;;;;;;5055891;28;20484;-71
2023/08/25 09:19:31;;;;;;;27.45;17.20;;;21.30;99.90;;;;;;5056555;28;20052;-71
2023/08/25 09:21:57;;;;;;;23.90;17.00;;;21.30;99.90;;;;;;5054927;28;20120;-71
2023/08/25 09:24:23;;;;;;;32.00;17.80;;;21.50;99.90;;;;;;5054834;28;20053;-71
2023/08/25 09:26:49;;;;;;;30.13;17.60;;;21.50;99.90;;;;;;5054681;28;20048;-71
2023/08/25 09:29:15;;;;;;;26.17;17.45;;;21.50;99.90;;;;;;5056035;28;20392;-71
2023/08/25 09:31:42;;;;;;;26.48;17.63;;;21.60;99.90;;;;;;5055030;28;20476;-71
2023/08/25 09:34:10;;;;;;;26.40;16.83;;;21.60;99.90;;;;;;5054613;28;20056;-71
2023/08/25 09:36:53;;;;;;;28.25;16.38;;;21.70;99.90;;;;;;5055977;28;20170;-71
2023/08/25 09:39:20;;;;;;;25.92;18.10;;;22.00;99.90;;;;;;5056040;28;20174;-72
2023/08/25 09:41:46;;;;;;;24.17;16.20;;;22.00;99.90;;;;;;5056119;28;20037;-72
2023/08/25 09:44:12;;;;;;;26.77;17.42;;;22.10;99.90;;;;;;5054319;28;20080;-71
2023/08/25 09:46:39;;;;;;;23.75;16.23;;;22.00;99.90;;;;;;5054411;28;20128;-71
2023/08/25 09:49:09;;;;;;;22.67;16.02;;;21.90;99.90;;;;;;5054081;28;20365;-71
2023/08/25 09:51:39;;;;;;;26.00;15.95;;;22.00;99.90;;;;;;5054266;28;20045;-71
2023/08/25 09:54:16;;;;;;;27.23;16.33;;;22.00;99.90;;;;;;5054307;28;20044;-70
2023/08/25 09:56:51;;;;;;;25.25;17.45;;;21.80;99.90;;;;;;5054504;28;20037;-70
2023/08/25 09:59:16;;;;;;;28.65;16.73;;;21.90;99.90;;;;;;5053933;28;20094;-70
2023/08/25 10:01:44;;;;;;;23.15;16.45;;;21.90;99.90;;;;;;5054450;28;20244;-70
2023/08/25 10:04:10;;;;;;;27.08;17.73;;;21.80;99.90;;;;;;5054426;28;20053;-70
2023/08/25 10:06:37;;;;;;;25.90;16.20;;;21.80;99.90;;;;;;5054001;28;20052;-72
2023/08/25 10:09:04;;;;;;;22.70;16.27;;;21.70;99.90;;;;;;5053953;28;20063;-70
2023/08/25 10:11:42;;;;;;;20.67;14.73;;;21.80;99.90;;;;;;5054120;28;20056;-70
2023/08/25 10:14:12;;;;;;;23.45;15.32;;;22.00;99.90;;;;;;5054251;28;20049;-70
2023/08/25 10:16:44;;;;;;;24.35;16.58;;;22.00;99.90;;;;;;5053932;28;20053;-75
2023/08/25 10:19:14;;;;;;;21.33;14.20;;;22.10;99.90;;;;;;5053616;28;20052;-71
2023/08/25 10:21:43;;;;;;;28.13;15.85;;;22.10;99.90;;;;;;5053666;28;20052;-71
2023/08/25 10:24:11;;;;;;;21.33;14.45;;;22.20;99.90;;;;;;5053821;28;20041;-71
2023/08/25 10:26:37;;;;;;;20.42;15.00;;;22.20;99.90;;;;;;5054013;28;20483;-71
2023/08/25 10:29:03;;;;;;;22.33;15.82;;;22.10;99.90;;;;;;5053479;28;20080;-71
2023/08/25 10:31:30;;;;;;;22.60;14.98;;;22.30;99.90;;;;;;5053590;28;20045;-70
2023/08/25 10:33:56;;;;;;;31.50;16.35;;;22.30;99.90;;;;;;5054918;28;20076;-71
2023/08/25 10:36:23;;;;;;;48.10;18.83;;;22.30;99.90;;;;;;5054762;28;20488;-71
2023/08/25 10:38:54;;;;;;;33.67;17.33;;;22.30;99.90;;;;;;5053321;28;20084;-77
2023/08/25 10:41:21;;;;;;;24.60;14.45;;;22.40;99.90;;;;;;5053438;28;20537;-70
2023/08/25 10:43:54;;;;;;;23.52;14.98;;;22.50;99.90;;;;;;5054217;28;20098;-70
2023/08/25 10:46:23;;;;;;;23.42;14.55;;;22.70;99.90;;;;;;5053356;28;20050;-70
2023/08/25 10:49:03;;;;;;;25.65;14.60;;;22.60;99.90;;;;;;5054598;28;20060;-71
2023/08/25 10:51:28;;;;;;;20.33;13.45;;;22.70;99.90;;;;;;5053121;28;20094;-70
2023/08/25 10:53:54;;;;;;;21.17;13.88;;;22.70;99.90;;;;;;5054416;28;20040;-70
2023/08/25 10:56:21;;;;;;;19.50;13.82;;;22.70;99.90;;;;;;5054424;28;20068;-71
2023/08/25 10:59:09;;;;;;;22.98;14.13;;;22.70;99.90;;;;;;5054360;28;20044;-77
2023/08/25 11:01:38;;;;;;;19.15;13.18;;;22.80;99.90;;;;;;5053103;28;20077;-70
2023/08/25 11:04:05;;;;;;;50.20;20.17;;;22.90;99.90;;;;;;5052697;28;20041;-70
2023/08/25 11:06:48;;;;;;;78.15;28.45;;;23.00;99.90;;;;;;5054211;28;20481;-71
2023/08/25 11:09:20;;;;;;;30.15;14.85;;;22.90;99.90;;;;;;5052785;28;20041;-71
2023/08/25 11:11:54;;;;;;;20.45;15.07;;;22.90;99.90;;;;;;5054097;28;20389;-71
2023/08/25 11:14:20;;;;;;;20.05;14.27;;;22.90;99.90;;;;;;5054050;28;20147;-70
2023/08/25 11:16:47;;;;;;;22.02;14.38;;;22.70;99.90;;;;;;5052891;28;20049;-77
2023/08/25 11:19:19;;;;;;;21.67;14.68;;;22.70;99.90;;;;;;5052642;28;20059;-71
2023/08/25 11:21:54;;;;;;;18.02;13.60;;;22.70;99.90;;;;;;5050456;28;20080;-72
2023/08/25 11:24:23;;;;;;;21.00;14.43;;;22.60;99.90;;;;;;5035731;28;20086;-71
2023/08/25 11:26:51;;;;;;;19.17;13.75;;;22.50;99.90;;;;;;5040221;28;20064;-73
2023/08/25 11:29:17;;;;;;;17.92;13.60;;;22.60;99.90;;;;;;5046303;28;20047;-72
2023/08/25 11:31:46;;;;;;;18.75;14.13;;;22.70;99.90;;;;;;5035935;28;20041;-72
2023/08/25 11:34:12;;;;;;;19.70;13.07;;;22.80;99.90;;;;;;5027465;28;20142;-72
2023/08/25 11:36:37;;;;;;;24.08;13.95;;;22.70;99.90;;;;;;5028933;28;20037;-72
2023/08/25 11:39:03;;;;;;;18.27;13.18;;;22.80;99.90;;;;;;5028090;28;20044;-72
2023/08/25 11:41:29;;;;;;;18.05;13.57;;;22.70;99.90;;;;;;5029134;28;20060;-73
2023/08/25 11:43:55;;;;;;;16.73;13.13;;;22.70;99.90;;;;;;5027643;28;20057;-72
2023/08/25 11:46:22;;;;;;;20.30;12.43;;;22.80;99.90;;;;;;5029643;28;20041;-73
2023/08/25 11:48:53;;;;;;;16.20;11.68;;;22.90;99.90;;;;;;5027165;28;20037;-73
2023/08/25 11:51:18;;;;;;;16.70;12.27;;;22.80;99.90;;;;;;5028777;28;20077;-72
2023/08/25 11:53:45;;;;;;;17.50;12.02;;;22.80;99.90;;;;;;5029434;28;20578;-73
2023/08/25 11:56:15;;;;;;;17.25;11.70;;;22.70;99.90;;;;;;5027195;28;20052;-72
2023/08/25 11:58:42;;;;;;;17.25;12.68;;;22.70;99.90;;;;;;5028505;28;20037;-71
2023/08/25 12:01:09;;;;;;;21.70;13.00;;;22.60;99.90;;;;;;5028251;28;20033;-72
2023/08/25 12:03:35;;;;;;;17.70;12.07;;;22.50;99.90;;;;;;5027429;28;20068;-73
2023/08/25 12:06:08;;;;;;;19.52;13.52;;;22.40;99.90;;;;;;5026977;28;20167;-73
2023/08/25 12:08:35;;;;;;;20.23;12.02;;;22.30;99.90;;;;;;5027681;28;20488;-72
2023/08/25 12:11:02;;;;;;;19.42;12.27;;;22.30;99.90;;;;;;5027951;28;20653;-71
2023/08/25 12:13:32;;;;;;;17.23;12.38;;;22.20;99.90;;;;;;5026835;28;20592;-74
2023/08/25 12:15:58;;;;;;;14.80;11.77;;;22.20;99.90;;;;;;5027253;28;20547;-71
2023/08/25 12:18:37;;;;;;;18.38;11.85;;;22.00;99.90;;;;;;5042333;28;20049;-70
2023/08/25 12:21:05;;;;;;;18.65;12.48;;;21.90;99.90;;;;;;5043461;28;20534;-72
2023/08/25 12:23:41;;;;;;;18.75;13.05;;;21.90;99.90;;;;;;5038670;28;20041;-73
2023/08/25 12:26:13;;;;;;;17.70;11.63;;;21.80;99.90;;;;;;5026997;28;20404;-73